BGJN

Ilulissat Airport

Airport
ICAO code
BGJN
IATA Code
JAV
Summary
ICAO Region
NAT
ICAO Territory
Location

,

Serving
Ilulissat
Elevation
95 ft
Coordinates
69° 14' 4" N , 51° 3' 4" W
Metar
Observation
BGJN 081550Z 36003KT 9999 SCT008 SCT017 OVC030 07/06 Q0997
Station
Jacobshavn Lufthavn
Date/Time
2022-08-08 15:50:00
Wind direction
360°
Wind speed
03 kts
Lowest cloud amount
scattered clouds
Temperature
7°C
Dew point
6°C
Humidity
93%
QNH
997 hPa
Weather condition
n/a

Runways

Designator Length Width Surface Rops
8/26 845 0 UNK No/No

Airport map

Aerial View

SKYbrary Partners:

Safety knowledge contributed by: